sensor_id;sensor_type;location;lat;lon;timestamp;P1;durP1;ratioP1;P2;durP2;ratioP2
37559;SDS011;23398;50.928;7.084;2022-07-17T00:00:40;1.15;;;0.93;;
37559;SDS011;23398;50.928;7.084;2022-07-17T00:03:13;1.42;;;1.10;;
37559;SDS011;23398;50.928;7.084;2022-07-17T00:05:39;1.45;;;1.27;;
37559;SDS011;23398;50.928;7.084;2022-07-17T00:08:06;1.48;;;1.30;;
37559;SDS011;23398;50.928;7.084;2022-07-17T00:10:33;1.90;;;1.10;;
37559;SDS011;23398;50.928;7.084;2022-07-17T00:12:59;1.63;;;1.10;;
37559;SDS011;23398;50.928;7.084;2022-07-17T00:15:25;1.10;;;1.00;;
37559;SDS011;23398;50.928;7.084;2022-07-17T00:17:51;1.23;;;0.98;;
37559;SDS011;23398;50.928;7.084;2022-07-17T00:20:16;1.95;;;1.10;;
37559;SDS011;23398;50.928;7.084;2022-07-17T00:22:42;1.50;;;1.15;;
37559;SDS011;23398;50.928;7.084;2022-07-17T00:25:08;1.98;;;1.10;;
37559;SDS011;23398;50.928;7.084;2022-07-17T00:27:35;1.75;;;1.02;;
37559;SDS011;23398;50.928;7.084;2022-07-17T00:30:01;1.63;;;1.08;;
37559;SDS011;23398;50.928;7.084;2022-07-17T00:32:27;2.78;;;1.05;;
37559;SDS011;23398;50.928;7.084;2022-07-17T00:34:53;1.52;;;1.00;;
37559;SDS011;23398;50.928;7.084;2022-07-17T00:37:19;1.10;;;1.00;;
37559;SDS011;23398;50.928;7.084;2022-07-17T00:39:44;2.08;;;0.90;;
37559;SDS011;23398;50.928;7.084;2022-07-17T00:42:13;1.40;;;1.17;;
37559;SDS011;23398;50.928;7.084;2022-07-17T00:44:41;1.73;;;1.10;;
37559;SDS011;23398;50.928;7.084;2022-07-17T00:47:13;1.17;;;0.90;;
37559;SDS011;23398;50.928;7.084;2022-07-17T00:49:40;1.48;;;1.10;;
37559;SDS011;23398;50.928;7.084;2022-07-17T00:52:07;1.40;;;1.00;;
37559;SDS011;23398;50.928;7.084;2022-07-17T00:54:37;2.28;;;1.10;;
37559;SDS011;23398;50.928;7.084;2022-07-17T00:57:07;1.20;;;1.02;;
37559;SDS011;23398;50.928;7.084;2022-07-17T00:59:35;1.70;;;1.02;;
37559;SDS011;23398;50.928;7.084;2022-07-17T01:02:08;1.10;;;1.00;;
37559;SDS011;23398;50.928;7.084;2022-07-17T01:04:36;2.03;;;1.15;;
37559;SDS011;23398;50.928;7.084;2022-07-17T01:07:03;3.15;;;1.15;;
37559;SDS011;23398;50.928;7.084;2022-07-17T01:09:30;1.73;;;1.08;;
37559;SDS011;23398;50.928;7.084;2022-07-17T01:11:56;2.10;;;1.05;;
37559;SDS011;23398;50.928;7.084;2022-07-17T01:14:23;2.30;;;1.13;;
37559;SDS011;23398;50.928;7.084;2022-07-17T01:16:50;2.85;;;1.40;;
37559;SDS011;23398;50.928;7.084;2022-07-17T01:19:16;1.92;;;1.20;;
37559;SDS011;23398;50.928;7.084;2022-07-17T01:21:44;3.38;;;1.23;;
37559;SDS011;23398;50.928;7.084;2022-07-17T01:24:11;1.00;;;0.90;;
37559;SDS011;23398;50.928;7.084;2022-07-17T01:26:45;1.92;;;1.13;;
37559;SDS011;23398;50.928;7.084;2022-07-17T01:29:13;2.42;;;1.20;;
37559;SDS011;23398;50.928;7.084;2022-07-17T01:31:40;1.17;;;1.08;;
37559;SDS011;23398;50.928;7.084;2022-07-17T01:34:07;3.05;;;1.10;;
37559;SDS011;23398;50.928;7.084;2022-07-17T01:36:35;1.33;;;1.13;;
37559;SDS011;23398;50.928;7.084;2022-07-17T01:39:01;2.00;;;1.48;;
37559;SDS011;23398;50.928;7.084;2022-07-17T01:41:28;2.08;;;1.17;;
37559;SDS011;23398;50.928;7.084;2022-07-17T01:43:53;1.40;;;1.10;;
37559;SDS011;23398;50.928;7.084;2022-07-17T01:46:19;2.25;;;1.20;;
37559;SDS011;23398;50.928;7.084;2022-07-17T01:48:44;2.13;;;1.13;;
37559;SDS011;23398;50.928;7.084;2022-07-17T01:51:10;1.20;;;1.10;;
37559;SDS011;23398;50.928;7.084;2022-07-17T01:53:35;1.40;;;1.10;;
37559;SDS011;23398;50.928;7.084;2022-07-17T01:56:01;1.23;;;1.13;;
37559;SDS011;23398;50.928;7.084;2022-07-17T01:58:27;1.80;;;1.00;;
37559;SDS011;23398;50.928;7.084;2022-07-17T02:00:53;2.28;;;1.10;;
37559;SDS011;23398;50.928;7.084;2022-07-17T02:03:19;2.67;;;1.10;;
37559;SDS011;23398;50.928;7.084;2022-07-17T02:05:45;1.50;;;1.20;;
37559;SDS011;23398;50.928;7.084;2022-07-17T02:08:11;1.75;;;1.20;;
37559;SDS011;23398;50.928;7.084;2022-07-17T02:10:36;2.50;;;1.20;;
37559;SDS011;23398;50.928;7.084;2022-07-17T02:13:02;2.00;;;1.20;;
37559;SDS011;23398;50.928;7.084;2022-07-17T02:15:28;1.25;;;1.13;;
37559;SDS011;23398;50.928;7.084;2022-07-17T02:17:53;1.20;;;0.98;;
37559;SDS011;23398;50.928;7.084;2022-07-17T02:20:20;1.40;;;1.10;;
37559;SDS011;23398;50.928;7.084;2022-07-17T02:22:46;2.63;;;1.20;;
37559;SDS011;23398;50.928;7.084;2022-07-17T02:25:12;1.50;;;1.30;;
37559;SDS011;23398;50.928;7.084;2022-07-17T02:27:39;1.30;;;1.10;;
37559;SDS011;23398;50.928;7.084;2022-07-17T02:30:07;1.65;;;1.10;;
37559;SDS011;23398;50.928;7.084;2022-07-17T02:32:39;1.80;;;1.20;;
37559;SDS011;23398;50.928;7.084;2022-07-17T02:35:05;1.30;;;1.20;;
37559;SDS011;23398;50.928;7.084;2022-07-17T02:37:32;2.28;;;1.40;;
37559;SDS011;23398;50.928;7.084;2022-07-17T02:39:59;1.65;;;1.20;;
37559;SDS011;23398;50.928;7.084;2022-07-17T02:42:26;1.73;;;1.20;;
37559;SDS011;23398;50.928;7.084;2022-07-17T02:44:53;1.48;;;1.10;;
37559;SDS011;23398;50.928;7.084;2022-07-17T02:47:20;1.40;;;0.98;;
37559;SDS011;23398;50.928;7.084;2022-07-17T02:49:47;1.83;;;1.08;;
37559;SDS011;23398;50.928;7.084;2022-07-17T02:52:13;2.08;;;1.30;;
37559;SDS011;23398;50.928;7.084;2022-07-17T02:54:39;1.90;;;1.10;;
37559;SDS011;23398;50.928;7.084;2022-07-17T02:57:04;1.73;;;1.10;;
37559;SDS011;23398;50.928;7.084;2022-07-17T02:59:30;1.52;;;1.13;;
37559;SDS011;23398;50.928;7.084;2022-07-17T03:01:55;1.20;;;1.10;;
37559;SDS011;23398;50.928;7.084;2022-07-17T03:04:21;2.13;;;1.20;;
37559;SDS011;23398;50.928;7.084;2022-07-17T03:06:46;1.33;;;0.90;;
37559;SDS011;23398;50.928;7.084;2022-07-17T03:09:12;1.05;;;0.95;;
37559;SDS011;23398;50.928;7.084;2022-07-17T03:11:37;1.88;;;0.98;;
37559;SDS011;23398;50.928;7.084;2022-07-17T03:14:03;1.45;;;1.10;;
37559;SDS011;23398;50.928;7.084;2022-07-17T03:16:28;1.75;;;1.20;;
37559;SDS011;23398;50.928;7.084;2022-07-17T03:18:54;1.33;;;1.05;;
37559;SDS011;23398;50.928;7.084;2022-07-17T03:21:19;1.27;;;1.00;;
37559;SDS011;23398;50.928;7.084;2022-07-17T03:23:45;1.58;;;1.08;;
37559;SDS011;23398;50.928;7.084;2022-07-17T03:26:11;1.77;;;1.10;;
37559;SDS011;23398;50.928;7.084;2022-07-17T03:28:36;1.40;;;0.90;;
37559;SDS011;23398;50.928;7.084;2022-07-17T03:31:02;2.28;;;1.20;;
37559;SDS011;23398;50.928;7.084;2022-07-17T03:33:27;1.48;;;1.05;;
37559;SDS011;23398;50.928;7.084;2022-07-17T03:35:53;1.63;;;1.00;;
37559;SDS011;23398;50.928;7.084;2022-07-17T03:38:18;1.67;;;1.25;;
37559;SDS011;23398;50.928;7.084;2022-07-17T03:40:44;1.70;;;1.00;;
37559;SDS011;23398;50.928;7.084;2022-07-17T03:43:10;1.58;;;1.27;;
37559;SDS011;23398;50.928;7.084;2022-07-17T03:45:36;1.23;;;1.00;;
37559;SDS011;23398;50.928;7.084;2022-07-17T03:48:01;1.63;;;1.10;;
37559;SDS011;23398;50.928;7.084;2022-07-17T03:50:27;2.00;;;1.10;;
37559;SDS011;23398;50.928;7.084;2022-07-17T03:52:52;1.13;;;1.00;;
37559;SDS011;23398;50.928;7.084;2022-07-17T03:55:18;1.58;;;1.00;;
37559;SDS011;23398;50.928;7.084;2022-07-17T03:57:44;1.98;;;1.30;;
37559;SDS011;23398;50.928;7.084;2022-07-17T04:00:09;1.15;;;1.05;;
37559;SDS011;23398;50.928;7.084;2022-07-17T04:02:35;1.35;;;0.93;;
37559;SDS011;23398;50.928;7.084;2022-07-17T04:05:01;1.80;;;0.98;;
37559;SDS011;23398;50.928;7.084;2022-07-17T04:07:27;2.00;;;1.08;;
37559;SDS011;23398;50.928;7.084;2022-07-17T04:09:53;2.78;;;1.17;;
37559;SDS011;23398;50.928;7.084;2022-07-17T04:12:19;2.72;;;1.35;;
37559;SDS011;23398;50.928;7.084;2022-07-17T04:14:45;1.58;;;0.95;;
37559;SDS011;23398;50.928;7.084;2022-07-17T04:17:11;1.50;;;1.00;;
37559;SDS011;23398;50.928;7.084;2022-07-17T04:19:36;1.25;;;0.90;;
37559;SDS011;23398;50.928;7.084;2022-07-17T04:22:02;1.23;;;1.13;;
37559;SDS011;23398;50.928;7.084;2022-07-17T04:24:27;1.83;;;1.00;;
37559;SDS011;23398;50.928;7.084;2022-07-17T04:26:53;2.72;;;1.15;;
37559;SDS011;23398;50.928;7.084;2022-07-17T04:29:18;1.55;;;1.10;;
37559;SDS011;23398;50.928;7.084;2022-07-17T04:31:44;1.30;;;1.02;;
37559;SDS011;23398;50.928;7.084;2022-07-17T04:34:09;1.77;;;1.30;;
37559;SDS011;23398;50.928;7.084;2022-07-17T04:36:35;3.17;;;1.23;;
37559;SDS011;23398;50.928;7.084;2022-07-17T04:39:01;1.40;;;1.00;;
37559;SDS011;23398;50.928;7.084;2022-07-17T04:41:26;1.23;;;1.00;;
37559;SDS011;23398;50.928;7.084;2022-07-17T04:43:52;1.55;;;1.00;;
37559;SDS011;23398;50.928;7.084;2022-07-17T04:46:18;1.77;;;1.15;;
37559;SDS011;23398;50.928;7.084;2022-07-17T04:48:44;1.42;;;1.02;;
37559;SDS011;23398;50.928;7.084;2022-07-17T04:51:10;1.38;;;1.17;;
37559;SDS011;23398;50.928;7.084;2022-07-17T04:53:36;2.10;;;1.20;;
37559;SDS011;23398;50.928;7.084;2022-07-17T04:56:02;1.60;;;1.20;;
37559;SDS011;23398;50.928;7.084;2022-07-17T04:58:28;1.50;;;1.30;;
37559;SDS011;23398;50.928;7.084;2022-07-17T05:00:54;1.48;;;1.05;;
37559;SDS011;23398;50.928;7.084;2022-07-17T05:03:19;1.25;;;1.00;;
37559;SDS011;23398;50.928;7.084;2022-07-17T05:05:45;1.45;;;1.15;;
37559;SDS011;23398;50.928;7.084;2022-07-17T05:08:11;1.60;;;1.17;;
37559;SDS011;23398;50.928;7.084;2022-07-17T05:10:36;1.23;;;1.13;;
37559;SDS011;23398;50.928;7.084;2022-07-17T05:13:02;2.80;;;1.25;;
37559;SDS011;23398;50.928;7.084;2022-07-17T05:15:28;1.55;;;1.17;;
37559;SDS011;23398;50.928;7.084;2022-07-17T05:17:55;1.83;;;1.30;;
37559;SDS011;23398;50.928;7.084;2022-07-17T05:20:20;1.40;;;1.20;;
37559;SDS011;23398;50.928;7.084;2022-07-17T05:22:46;1.35;;;1.20;;
37559;SDS011;23398;50.928;7.084;2022-07-17T05:25:12;2.28;;;1.50;;
37559;SDS011;23398;50.928;7.084;2022-07-17T05:27:37;2.03;;;1.20;;
37559;SDS011;23398;50.928;7.084;2022-07-17T05:30:03;1.55;;;1.10;;
37559;SDS011;23398;50.928;7.084;2022-07-17T05:32:29;2.17;;;1.35;;
37559;SDS011;23398;50.928;7.084;2022-07-17T05:34:54;2.75;;;1.40;;
37559;SDS011;23398;50.928;7.084;2022-07-17T05:37:20;2.25;;;1.38;;
37559;SDS011;23398;50.928;7.084;2022-07-17T05:39:46;2.15;;;1.20;;
37559;SDS011;23398;50.928;7.084;2022-07-17T05:42:11;2.33;;;1.17;;
37559;SDS011;23398;50.928;7.084;2022-07-17T05:44:37;3.30;;;1.48;;
37559;SDS011;23398;50.928;7.084;2022-07-17T05:47:02;2.10;;;1.40;;
37559;SDS011;23398;50.928;7.084;2022-07-17T05:49:28;2.72;;;1.38;;
37559;SDS011;23398;50.928;7.084;2022-07-17T05:51:54;1.80;;;1.38;;
37559;SDS011;23398;50.928;7.084;2022-07-17T05:54:19;4.50;;;1.38;;
37559;SDS011;23398;50.928;7.084;2022-07-17T05:56:45;2.35;;;1.38;;
37559;SDS011;23398;50.928;7.084;2022-07-17T05:59:10;3.58;;;1.48;;
37559;SDS011;23398;50.928;7.084;2022-07-17T06:01:36;1.70;;;1.20;;
37559;SDS011;23398;50.928;7.084;2022-07-17T06:04:02;3.38;;;1.33;;
37559;SDS011;23398;50.928;7.084;2022-07-17T06:06:27;2.05;;;1.30;;
37559;SDS011;23398;50.928;7.084;2022-07-17T06:08:53;1.55;;;1.17;;
37559;SDS011;23398;50.928;7.084;2022-07-17T06:11:18;2.05;;;1.40;;
37559;SDS011;23398;50.928;7.084;2022-07-17T06:13:44;3.13;;;1.40;;
37559;SDS011;23398;50.928;7.084;2022-07-17T06:16:10;1.33;;;1.10;;
37559;SDS011;23398;50.928;7.084;2022-07-17T06:18:35;2.42;;;1.48;;
37559;SDS011;23398;50.928;7.084;2022-07-17T06:21:01;3.33;;;1.25;;
37559;SDS011;23398;50.928;7.084;2022-07-17T06:23:26;2.35;;;1.27;;
37559;SDS011;23398;50.928;7.084;2022-07-17T06:25:52;3.03;;;1.23;;
37559;SDS011;23398;50.928;7.084;2022-07-17T06:28:17;2.45;;;1.42;;
37559;SDS011;23398;50.928;7.084;2022-07-17T06:30:43;2.53;;;1.38;;
37559;SDS011;23398;50.928;7.084;2022-07-17T06:33:08;2.42;;;1.60;;
37559;SDS011;23398;50.928;7.084;2022-07-17T06:35:34;5.15;;;1.33;;
37559;SDS011;23398;50.928;7.084;2022-07-17T06:38:01;3.45;;;1.30;;
37559;SDS011;23398;50.928;7.084;2022-07-17T06:40:30;1.88;;;1.40;;
37559;SDS011;23398;50.928;7.084;2022-07-17T06:42:55;4.18;;;1.40;;
37559;SDS011;23398;50.928;7.084;2022-07-17T06:45:21;1.58;;;1.25;;
37559;SDS011;23398;50.928;7.084;2022-07-17T06:47:47;2.45;;;1.45;;
37559;SDS011;23398;50.928;7.084;2022-07-17T06:50:12;3.05;;;1.40;;
37559;SDS011;23398;50.928;7.084;2022-07-17T06:52:38;2.10;;;1.15;;
37559;SDS011;23398;50.928;7.084;2022-07-17T06:55:04;2.33;;;1.40;;
37559;SDS011;23398;50.928;7.084;2022-07-17T06:57:30;3.03;;;1.10;;
37559;SDS011;23398;50.928;7.084;2022-07-17T06:59:55;1.92;;;1.23;;
37559;SDS011;23398;50.928;7.084;2022-07-17T07:02:22;2.95;;;1.20;;
37559;SDS011;23398;50.928;7.084;2022-07-17T07:04:47;2.45;;;1.30;;
37559;SDS011;23398;50.928;7.084;2022-07-17T07:07:13;1.67;;;1.13;;
37559;SDS011;23398;50.928;7.084;2022-07-17T07:09:38;4.03;;;1.10;;
37559;SDS011;23398;50.928;7.084;2022-07-17T07:12:04;2.03;;;1.17;;
37559;SDS011;23398;50.928;7.084;2022-07-17T07:14:30;1.52;;;1.20;;
37559;SDS011;23398;50.928;7.084;2022-07-17T07:16:55;1.52;;;1.15;;
37559;SDS011;23398;50.928;7.084;2022-07-17T07:19:21;1.20;;;1.10;;
37559;SDS011;23398;50.928;7.084;2022-07-17T07:21:46;1.80;;;1.13;;
37559;SDS011;23398;50.928;7.084;2022-07-17T07:24:12;1.75;;;1.10;;
37559;SDS011;23398;50.928;7.084;2022-07-17T07:26:37;1.77;;;1.13;;
37559;SDS011;23398;50.928;7.084;2022-07-17T07:29:03;1.50;;;1.00;;
37559;SDS011;23398;50.928;7.084;2022-07-17T07:31:28;3.22;;;1.20;;
37559;SDS011;23398;50.928;7.084;2022-07-17T07:33:54;1.80;;;1.20;;
37559;SDS011;23398;50.928;7.084;2022-07-17T07:36:19;1.85;;;1.20;;
37559;SDS011;23398;50.928;7.084;2022-07-17T07:38:45;2.50;;;1.35;;
37559;SDS011;23398;50.928;7.084;2022-07-17T07:41:11;2.28;;;1.40;;
37559;SDS011;23398;50.928;7.084;2022-07-17T07:43:36;4.32;;;1.30;;
37559;SDS011;23398;50.928;7.084;2022-07-17T07:46:02;2.10;;;1.20;;
37559;SDS011;23398;50.928;7.084;2022-07-17T07:48:28;2.70;;;1.25;;
37559;SDS011;23398;50.928;7.084;2022-07-17T07:50:54;1.65;;;1.20;;
37559;SDS011;23398;50.928;7.084;2022-07-17T07:53:20;1.67;;;1.20;;
37559;SDS011;23398;50.928;7.084;2022-07-17T07:55:45;1.40;;;1.20;;
37559;SDS011;23398;50.928;7.084;2022-07-17T07:58:12;1.90;;;1.27;;
37559;SDS011;23398;50.928;7.084;2022-07-17T08:00:39;1.83;;;1.10;;
37559;SDS011;23398;50.928;7.084;2022-07-17T08:03:05;1.63;;;1.20;;
37559;SDS011;23398;50.928;7.084;2022-07-17T08:05:31;2.22;;;1.33;;
37559;SDS011;23398;50.928;7.084;2022-07-17T08:07:57;1.40;;;1.20;;
37559;SDS011;23398;50.928;7.084;2022-07-17T08:10:23;2.20;;;1.20;;
37559;SDS011;23398;50.928;7.084;2022-07-17T08:12:49;2.17;;;1.40;;
37559;SDS011;23398;50.928;7.084;2022-07-17T08:15:15;1.92;;;1.40;;
37559;SDS011;23398;50.928;7.084;2022-07-17T08:17:45;2.17;;;1.33;;
37559;SDS011;23398;50.928;7.084;2022-07-17T08:20:11;2.80;;;1.45;;
37559;SDS011;23398;50.928;7.084;2022-07-17T08:22:37;2.70;;;1.42;;
37559;SDS011;23398;50.928;7.084;2022-07-17T08:25:03;3.05;;;1.67;;
37559;SDS011;23398;50.928;7.084;2022-07-17T08:27:34;1.65;;;1.20;;
37559;SDS011;23398;50.928;7.084;2022-07-17T08:30:04;2.80;;;1.40;;
37559;SDS011;23398;50.928;7.084;2022-07-17T08:32:30;2.08;;;1.40;;
37559;SDS011;23398;50.928;7.084;2022-07-17T08:34:56;2.15;;;1.50;;
37559;SDS011;23398;50.928;7.084;2022-07-17T08:37:22;1.55;;;1.40;;
37559;SDS011;23398;50.928;7.084;2022-07-17T08:39:49;1.65;;;1.42;;
37559;SDS011;23398;50.928;7.084;2022-07-17T08:42:15;1.83;;;1.50;;
37559;SDS011;23398;50.928;7.084;2022-07-17T08:44:44;1.63;;;1.40;;
37559;SDS011;23398;50.928;7.084;2022-07-17T08:47:11;1.77;;;1.45;;
37559;SDS011;23398;50.928;7.084;2022-07-17T08:49:40;1.80;;;1.50;;
37559;SDS011;23398;50.928;7.084;2022-07-17T08:52:11;1.60;;;1.50;;
37559;SDS011;23398;50.928;7.084;2022-07-17T08:54:37;2.03;;;1.60;;
37559;SDS011;23398;50.928;7.084;2022-07-17T08:57:03;2.83;;;1.88;;
37559;SDS011;23398;50.928;7.084;2022-07-17T08:59:29;3.22;;;1.70;;
37559;SDS011;23398;50.928;7.084;2022-07-17T09:01:55;1.70;;;1.60;;
37559;SDS011;23398;50.928;7.084;2022-07-17T09:04:22;2.70;;;1.63;;
37559;SDS011;23398;50.928;7.084;2022-07-17T09:07:00;2.28;;;1.70;;
37559;SDS011;23398;50.928;7.084;2022-07-17T09:09:26;1.83;;;1.63;;
37559;SDS011;23398;50.928;7.084;2022-07-17T09:11:53;2.60;;;1.67;;
37559;SDS011;23398;50.928;7.084;2022-07-17T09:14:20;1.85;;;1.40;;
37559;SDS011;23398;50.928;7.084;2022-07-17T09:16:56;2.03;;;1.40;;
37559;SDS011;23398;50.928;7.084;2022-07-17T09:19:25;2.55;;;1.50;;
37559;SDS011;23398;50.928;7.084;2022-07-17T09:27:10;2.20;;;1.58;;
37559;SDS011;23398;50.928;7.084;2022-07-17T09:32:36;1.77;;;1.40;;
37559;SDS011;23398;50.928;7.084;2022-07-17T09:35:04;2.10;;;1.58;;
37559;SDS011;23398;50.928;7.084;2022-07-17T09:37:32;2.65;;;1.38;;
37559;SDS011;23398;50.928;7.084;2022-07-17T09:39:59;1.80;;;1.50;;
37559;SDS011;23398;50.928;7.084;2022-07-17T09:42:27;2.15;;;1.60;;
37559;SDS011;23398;50.928;7.084;2022-07-17T09:45:05;2.15;;;1.60;;
37559;SDS011;23398;50.928;7.084;2022-07-17T09:47:33;1.77;;;1.55;;
37559;SDS011;23398;50.928;7.084;2022-07-17T09:50:00;2.03;;;1.90;;
37559;SDS011;23398;50.928;7.084;2022-07-17T09:52:28;4.10;;;2.13;;
37559;SDS011;23398;50.928;7.084;2022-07-17T09:54:56;2.83;;;2.33;;
37559;SDS011;23398;50.928;7.084;2022-07-17T09:57:24;4.60;;;2.08;;
37559;SDS011;23398;50.928;7.084;2022-07-17T09:59:52;3.42;;;2.08;;
37559;SDS011;23398;50.928;7.084;2022-07-17T10:02:19;1.70;;;1.60;;
37559;SDS011;23398;50.928;7.084;2022-07-17T10:04:46;2.38;;;1.80;;
37559;SDS011;23398;50.928;7.084;2022-07-17T10:07:12;4.22;;;2.42;;
37559;SDS011;23398;50.928;7.084;2022-07-17T10:09:38;5.20;;;3.70;;
37559;SDS011;23398;50.928;7.084;2022-07-17T10:12:05;4.35;;;3.92;;
37559;SDS011;23398;50.928;7.084;2022-07-17T10:14:32;4.78;;;3.80;;
37559;SDS011;23398;50.928;7.084;2022-07-17T10:17:06;3.03;;;2.67;;
37559;SDS011;23398;50.928;7.084;2022-07-17T10:19:49;3.20;;;2.80;;
37559;SDS011;23398;50.928;7.084;2022-07-17T10:22:18;2.97;;;2.75;;
37559;SDS011;23398;50.928;7.084;2022-07-17T10:24:48;2.95;;;2.65;;
37559;SDS011;23398;50.928;7.084;2022-07-17T10:27:35;5.28;;;2.00;;
37559;SDS011;23398;50.928;7.084;2022-07-17T10:30:05;2.17;;;1.70;;
37559;SDS011;23398;50.928;7.084;2022-07-17T10:32:33;1.60;;;1.50;;
37559;SDS011;23398;50.928;7.084;2022-07-17T10:40:02;2.03;;;1.70;;
37559;SDS011;23398;50.928;7.084;2022-07-17T10:45:29;2.20;;;1.80;;
37559;SDS011;23398;50.928;7.084;2022-07-17T10:48:09;2.42;;;1.63;;
37559;SDS011;23398;50.928;7.084;2022-07-17T10:50:43;3.58;;;1.60;;
37559;SDS011;23398;50.928;7.084;2022-07-17T10:53:17;1.98;;;1.40;;
37559;SDS011;23398;50.928;7.084;2022-07-17T10:55:50;1.90;;;1.30;;
37559;SDS011;23398;50.928;7.084;2022-07-17T10:58:19;1.50;;;1.25;;
37559;SDS011;23398;50.928;7.084;2022-07-17T11:03:26;2.05;;;1.08;;
37559;SDS011;23398;50.928;7.084;2022-07-17T11:05:53;1.63;;;1.20;;
37559;SDS011;23398;50.928;7.084;2022-07-17T11:08:19;1.65;;;1.10;;
37559;SDS011;23398;50.928;7.084;2022-07-17T11:10:45;2.83;;;1.30;;
37559;SDS011;23398;50.928;7.084;2022-07-17T11:13:13;2.47;;;1.52;;
37559;SDS011;23398;50.928;7.084;2022-07-17T11:18:17;2.00;;;1.00;;
37559;SDS011;23398;50.928;7.084;2022-07-17T11:23:24;3.45;;;1.17;;
37559;SDS011;23398;50.928;7.084;2022-07-17T11:26:01;1.23;;;1.00;;
37559;SDS011;23398;50.928;7.084;2022-07-17T11:31:05;1.25;;;1.02;;
37559;SDS011;23398;50.928;7.084;2022-07-17T11:33:51;1.17;;;1.05;;
37559;SDS011;23398;50.928;7.084;2022-07-17T11:36:19;3.10;;;1.20;;
37559;SDS011;23398;50.928;7.084;2022-07-17T11:38:59;2.45;;;1.20;;
37559;SDS011;23398;50.928;7.084;2022-07-17T11:42:00;2.38;;;0.93;;
37559;SDS011;23398;50.928;7.084;2022-07-17T11:44:20;1.98;;;1.10;;
37559;SDS011;23398;50.928;7.084;2022-07-17T11:46:47;1.45;;;1.10;;
37559;SDS011;23398;50.928;7.084;2022-07-17T11:49:24;1.52;;;0.98;;
37559;SDS011;23398;50.928;7.084;2022-07-17T11:51:50;1.95;;;1.10;;
37559;SDS011;23398;50.928;7.084;2022-07-17T11:54:16;1.58;;;1.00;;
37559;SDS011;23398;50.928;7.084;2022-07-17T11:56:48;1.45;;;1.05;;
37559;SDS011;23398;50.928;7.084;2022-07-17T11:59:28;2.03;;;1.05;;
37559;SDS011;23398;50.928;7.084;2022-07-17T12:01:55;1.45;;;0.95;;
37559;SDS011;23398;50.928;7.084;2022-07-17T12:04:21;1.30;;;1.02;;
37559;SDS011;23398;50.928;7.084;2022-07-17T12:06:57;1.73;;;1.00;;
37559;SDS011;23398;50.928;7.084;2022-07-17T12:09:27;1.42;;;1.17;;
37559;SDS011;23398;50.928;7.084;2022-07-17T12:12:01;3.72;;;1.20;;
37559;SDS011;23398;50.928;7.084;2022-07-17T12:14:27;2.38;;;1.20;;
37559;SDS011;23398;50.928;7.084;2022-07-17T12:16:55;2.25;;;1.20;;
37559;SDS011;23398;50.928;7.084;2022-07-17T12:19:23;1.90;;;1.08;;
37559;SDS011;23398;50.928;7.084;2022-07-17T12:21:51;1.35;;;1.02;;
37559;SDS011;23398;50.928;7.084;2022-07-17T12:24:19;2.03;;;1.15;;
37559;SDS011;23398;50.928;7.084;2022-07-17T12:26:47;2.60;;;1.00;;
37559;SDS011;23398;50.928;7.084;2022-07-17T12:29:14;2.13;;;1.10;;
37559;SDS011;23398;50.928;7.084;2022-07-17T12:31:39;4.65;;;1.10;;
37559;SDS011;23398;50.928;7.084;2022-07-17T12:34:05;2.72;;;1.00;;
37559;SDS011;23398;50.928;7.084;2022-07-17T12:36:30;3.45;;;1.20;;
37559;SDS011;23398;50.928;7.084;2022-07-17T12:38:56;1.60;;;1.00;;
37559;SDS011;23398;50.928;7.084;2022-07-17T12:41:22;1.55;;;1.00;;
37559;SDS011;23398;50.928;7.084;2022-07-17T12:43:47;1.00;;;0.90;;
37559;SDS011;23398;50.928;7.084;2022-07-17T12:46:13;2.70;;;1.20;;
37559;SDS011;23398;50.928;7.084;2022-07-17T12:48:39;1.45;;;1.00;;
37559;SDS011;23398;50.928;7.084;2022-07-17T12:51:06;1.80;;;0.93;;
37559;SDS011;23398;50.928;7.084;2022-07-17T12:53:33;3.75;;;1.10;;
37559;SDS011;23398;50.928;7.084;2022-07-17T12:56:00;1.27;;;1.00;;
37559;SDS011;23398;50.928;7.084;2022-07-17T12:58:26;1.05;;;0.95;;
37559;SDS011;23398;50.928;7.084;2022-07-17T13:00:51;2.42;;;1.23;;
37559;SDS011;23398;50.928;7.084;2022-07-17T13:03:17;1.27;;;0.85;;
37559;SDS011;23398;50.928;7.084;2022-07-17T13:05:43;1.70;;;1.00;;
37559;SDS011;23398;50.928;7.084;2022-07-17T13:08:08;1.35;;;0.95;;
37559;SDS011;23398;50.928;7.084;2022-07-17T13:10:34;0.95;;;0.88;;
37559;SDS011;23398;50.928;7.084;2022-07-17T13:13:00;0.80;;;0.80;;
37559;SDS011;23398;50.928;7.084;2022-07-17T13:15:26;1.27;;;0.85;;
37559;SDS011;23398;50.928;7.084;2022-07-17T13:17:52;1.90;;;0.88;;
37559;SDS011;23398;50.928;7.084;2022-07-17T13:20:18;1.45;;;0.90;;
37559;SDS011;23398;50.928;7.084;2022-07-17T13:22:44;1.10;;;0.80;;
37559;SDS011;23398;50.928;7.084;2022-07-17T13:25:10;1.70;;;0.90;;
37559;SDS011;23398;50.928;7.084;2022-07-17T13:27:35;1.00;;;0.80;;
37559;SDS011;23398;50.928;7.084;2022-07-17T13:30:01;1.42;;;1.00;;
37559;SDS011;23398;50.928;7.084;2022-07-17T13:32:27;1.52;;;0.98;;
37559;SDS011;23398;50.928;7.084;2022-07-17T13:34:53;1.20;;;0.90;;
37559;SDS011;23398;50.928;7.084;2022-07-17T13:37:18;2.15;;;0.98;;
37559;SDS011;23398;50.928;7.084;2022-07-17T13:39:44;1.38;;;0.95;;
37559;SDS011;23398;50.928;7.084;2022-07-17T13:42:09;2.03;;;1.00;;
37559;SDS011;23398;50.928;7.084;2022-07-17T13:44:35;1.10;;;0.90;;
37559;SDS011;23398;50.928;7.084;2022-07-17T13:47:01;1.10;;;0.85;;
37559;SDS011;23398;50.928;7.084;2022-07-17T13:49:26;1.25;;;0.90;;
37559;SDS011;23398;50.928;7.084;2022-07-17T13:51:52;1.00;;;0.90;;
37559;SDS011;23398;50.928;7.084;2022-07-17T13:54:18;1.92;;;1.10;;
37559;SDS011;23398;50.928;7.084;2022-07-17T13:56:43;1.63;;;0.90;;
37559;SDS011;23398;50.928;7.084;2022-07-17T13:59:09;2.45;;;1.05;;
37559;SDS011;23398;50.928;7.084;2022-07-17T14:01:35;1.60;;;0.90;;
37559;SDS011;23398;50.928;7.084;2022-07-17T14:04:01;1.85;;;1.02;;
37559;SDS011;23398;50.928;7.084;2022-07-17T14:06:26;1.42;;;1.05;;
37559;SDS011;23398;50.928;7.084;2022-07-17T14:08:53;2.78;;;1.13;;
37559;SDS011;23398;50.928;7.084;2022-07-17T14:11:18;1.20;;;1.00;;
37559;SDS011;23398;50.928;7.084;2022-07-17T14:13:44;1.33;;;0.98;;
37559;SDS011;23398;50.928;7.084;2022-07-17T14:16:10;1.92;;;1.10;;
37559;SDS011;23398;50.928;7.084;2022-07-17T14:18:35;1.10;;;1.00;;
37559;SDS011;23398;50.928;7.084;2022-07-17T14:21:21;2.03;;;1.00;;
37559;SDS011;23398;50.928;7.084;2022-07-17T14:23:46;1.58;;;1.00;;
37559;SDS011;23398;50.928;7.084;2022-07-17T14:26:12;1.63;;;1.00;;
37559;SDS011;23398;50.928;7.084;2022-07-17T14:28:38;2.38;;;1.05;;
37559;SDS011;23398;50.928;7.084;2022-07-17T14:31:03;2.20;;;1.23;;
37559;SDS011;23398;50.928;7.084;2022-07-17T14:33:29;1.52;;;1.02;;
37559;SDS011;23398;50.928;7.084;2022-07-17T14:35:54;3.13;;;1.20;;
37559;SDS011;23398;50.928;7.084;2022-07-17T14:38:20;1.83;;;1.20;;
37559;SDS011;23398;50.928;7.084;2022-07-17T14:40:46;2.28;;;1.10;;
37559;SDS011;23398;50.928;7.084;2022-07-17T14:43:12;1.63;;;1.20;;
37559;SDS011;23398;50.928;7.084;2022-07-17T14:45:37;1.50;;;1.13;;
37559;SDS011;23398;50.928;7.084;2022-07-17T14:48:03;1.45;;;1.05;;
37559;SDS011;23398;50.928;7.084;2022-07-17T14:50:29;4.32;;;1.40;;
37559;SDS011;23398;50.928;7.084;2022-07-17T14:52:54;1.52;;;1.13;;
37559;SDS011;23398;50.928;7.084;2022-07-17T14:55:20;1.92;;;1.30;;
37559;SDS011;23398;50.928;7.084;2022-07-17T14:57:45;1.63;;;1.20;;
37559;SDS011;23398;50.928;7.084;2022-07-17T15:00:11;1.83;;;1.15;;
37559;SDS011;23398;50.928;7.084;2022-07-17T15:02:37;2.55;;;1.23;;
37559;SDS011;23398;50.928;7.084;2022-07-17T15:05:03;4.03;;;1.20;;
37559;SDS011;23398;50.928;7.084;2022-07-17T15:07:28;0.90;;;0.90;;
37559;SDS011;23398;50.928;7.084;2022-07-17T15:09:54;1.60;;;1.10;;
37559;SDS011;23398;50.928;7.084;2022-07-17T15:12:20;1.90;;;1.20;;